Time;durP1;ratioP1;P1;durP2;ratioP2;P2;SDS_P1;SDS_P2;PMS_P1;PMS_P2;Temp;Humidity;BMP_temperature;BMP_pressure;BME280_temperature;BME280_humidity;BME280_pressure;Samples;Min_cycle;Max_cycle;Signal;HPM_P1;HPM_P2
2022/09/29 00:01:05;;;;;;;;;9.33;8.67;;;;;;;;5037531;28;45603;-69
2022/09/29 00:03:30;;;;;;;;;11.33;10.00;;;;;;;;5039252;28;46278;-69
2022/09/29 00:05:56;;;;;;;;;10.67;7.33;;;;;;;;5038063;28;45503;-69
2022/09/29 00:08:22;;;;;;;;;10.00;8.33;;;;;;;;5046605;28;45510;-68
2022/09/29 00:10:47;;;;;;;;;8.00;6.33;;;;;;;;5054195;28;46576;-68
2022/09/29 00:13:13;;;;;;;;;10.33;8.33;;;;;;;;5049656;28;45489;-68
2022/09/29 00:15:39;;;;;;;;;7.67;7.67;;;;;;;;5037897;28;45583;-69
2022/09/29 00:18:04;;;;;;;;;10.00;8.00;;;;;;;;5040454;28;45477;-69
2022/09/29 00:20:29;;;;;;;;;9.33;8.33;;;;;;;;5046979;28;46544;-68
2022/09/29 00:22:54;;;;;;;;;13.00;8.33;;;;;;;;5037205;28;45535;-68
2022/09/29 00:25:20;;;;;;;;;8.00;6.33;;;;;;;;5037605;28;45585;-69
2022/09/29 00:27:45;;;;;;;;;10.00;8.33;;;;;;;;5036512;28;45529;-68
2022/09/29 00:30:10;;;;;;;;;11.67;9.67;;;;;;;;5043296;28;46097;-71
2022/09/29 00:32:36;;;;;;;;;8.67;8.00;;;;;;;;5046013;28;45584;-69
2022/09/29 00:35:01;;;;;;;;;10.67;9.00;;;;;;;;5043279;28;45454;-68
2022/09/29 00:37:27;;;;;;;;;8.00;7.33;;;;;;;;5053707;28;45721;-68
2022/09/29 00:39:52;;;;;;;;;12.33;10.67;;;;;;;;5040064;28;46201;-69
2022/09/29 00:42:18;;;;;;;;;11.00;10.00;;;;;;;;5036957;28;45481;-68
2022/09/29 00:45:02;;;;;;;;;9.67;8.00;;;;;;;;5054084;28;45752;-69
2022/09/29 00:47:28;;;;;;;;;10.67;8.33;;;;;;;;5054084;28;45404;-69
2022/09/29 00:49:58;;;;;;;;;8.00;7.33;;;;;;;;5053893;28;46822;-69
2022/09/29 00:52:33;;;;;;;;;10.67;9.67;;;;;;;;5053820;28;45454;-69
2022/09/29 00:55:04;;;;;;;;;7.33;7.33;;;;;;;;5054113;28;45497;-69
2022/09/29 00:57:40;;;;;;;;;9.33;8.00;;;;;;;;5053378;28;45475;-69
2022/09/29 01:00:12;;;;;;;;;11.33;10.00;;;;;;;;5045374;28;46659;-69
2022/09/29 01:02:40;;;;;;;;;11.00;9.00;;;;;;;;5036986;28;45678;-69
2022/09/29 01:05:07;;;;;;;;;8.67;8.00;;;;;;;;5036706;28;45445;-69
2022/09/29 01:07:32;;;;;;;;;9.67;8.33;;;;;;;;5037101;28;45601;-69
2022/09/29 01:09:58;;;;;;;;;11.00;8.33;;;;;;;;5036926;28;46022;-69
2022/09/29 01:12:23;;;;;;;;;10.67;10.67;;;;;;;;5036854;28;45739;-69
2022/09/29 01:14:49;;;;;;;;;11.33;9.33;;;;;;;;5051863;28;46334;-69
2022/09/29 01:17:15;;;;;;;;;10.00;8.00;;;;;;;;5048127;28;45451;-69
2022/09/29 01:19:59;;;;;;;;;15.00;9.00;;;;;;;;5036539;28;46195;-69
2022/09/29 01:22:33;;;;;;;;;11.00;9.00;;;;;;;;5043811;28;45702;-69
2022/09/29 01:25:08;;;;;;;;;12.00;9.00;;;;;;;;5053083;28;45544;-69
2022/09/29 01:27:33;;;;;;;;;10.00;8.67;;;;;;;;5046117;28;45681;-69
2022/09/29 01:29:58;;;;;;;;;11.00;9.00;;;;;;;;5037737;28;47299;-69
2022/09/29 01:32:46;;;;;;;;;9.33;9.33;;;;;;;;5054652;28;45738;-69
2022/09/29 01:35:12;;;;;;;;;8.00;8.00;;;;;;;;5052887;28;45471;-69
2022/09/29 01:37:55;;;;;;;;;11.00;10.67;;;;;;;;5049622;28;45469;-69
2022/09/29 01:40:23;;;;;;;;;12.67;9.67;;;;;;;;5053239;28;46526;-69
2022/09/29 01:42:59;;;;;;;;;9.33;9.33;;;;;;;;5053390;28;45392;-69
2022/09/29 01:45:32;;;;;;;;;10.00;7.67;;;;;;;;5053006;28;45628;-69
2022/09/29 01:48:00;;;;;;;;;15.00;11.33;;;;;;;;5036534;28;45514;-69
2022/09/29 01:50:45;;;;;;;;;15.33;12.00;;;;;;;;5047311;28;46400;-68
2022/09/29 01:53:34;;;;;;;;;11.00;9.67;;;;;;;;5052731;28;46402;-69
2022/09/29 01:56:02;;;;;;;;;9.67;9.67;;;;;;;;5010208;28;45547;-69
2022/09/29 01:58:39;;;;;;;;;9.67;9.67;;;;;;;;5009897;28;45927;-68
2022/09/29 02:01:09;;;;;;;;;13.00;10.33;;;;;;;;5010278;28;46715;-69
2022/09/29 02:03:37;;;;;;;;;12.67;11.00;;;;;;;;4996440;28;45791;-69
2022/09/29 02:06:05;;;;;;;;;13.00;9.33;;;;;;;;4993786;28;45487;-69
2022/09/29 02:08:36;;;;;;;;;10.67;8.67;;;;;;;;4996904;28;45742;-68
2022/09/29 02:11:03;;;;;;;;;10.33;8.00;;;;;;;;5009956;28;46159;-68
2022/09/29 02:13:30;;;;;;;;;8.33;7.33;;;;;;;;5007751;28;45442;-69
2022/09/29 02:15:57;;;;;;;;;10.67;10.67;;;;;;;;4995253;28;46007;-69
2022/09/29 02:18:27;;;;;;;;;10.00;7.00;;;;;;;;4993383;28;45627;-68
2022/09/29 02:20:53;;;;;;;;;12.33;8.67;;;;;;;;5002491;28;46111;-69
2022/09/29 02:23:18;;;;;;;;;10.33;8.33;;;;;;;;5009896;28;46010;-69
2022/09/29 02:25:46;;;;;;;;;10.00;9.00;;;;;;;;4993727;28;45593;-69
2022/09/29 02:28:12;;;;;;;;;6.00;6.00;;;;;;;;4993466;28;46113;-69
2022/09/29 02:30:37;;;;;;;;;8.67;7.00;;;;;;;;4999358;28;46507;-69
2022/09/29 02:33:02;;;;;;;;;7.00;7.00;;;;;;;;5031541;28;45592;-69
2022/09/29 02:35:31;;;;;;;;;11.33;10.00;;;;;;;;5037282;28;45439;-69
2022/09/29 02:38:11;;;;;;;;;8.67;8.67;;;;;;;;5039146;28;45473;-69
2022/09/29 02:40:49;;;;;;;;;8.50;6.25;;;;;;;;5051788;28;45462;-69
2022/09/29 02:43:15;;;;;;;;;8.00;7.00;;;;;;;;5052185;28;45510;-69
2022/09/29 02:45:48;;;;;;;;;7.67;7.67;;;;;;;;5052237;28;45391;-69
2022/09/29 02:48:40;;;;;;;;;7.67;7.67;;;;;;;;5035446;28;45575;-69
2022/09/29 02:51:11;;;;;;;;;8.33;8.33;;;;;;;;4993133;28;46536;-69
2022/09/29 02:53:39;;;;;;;;;9.33;9.00;;;;;;;;4993198;28;45497;-69
2022/09/29 02:56:13;;;;;;;;;12.67;8.67;;;;;;;;4993165;28;45541;-69
2022/09/29 02:58:56;;;;;;;;;8.67;7.33;;;;;;;;5004324;28;45911;-69
2022/09/29 03:01:23;;;;;;;;;11.33;9.67;;;;;;;;4992888;28;46436;-69
2022/09/29 03:03:48;;;;;;;;;9.33;6.00;;;;;;;;4999989;28;45476;-69
2022/09/29 03:06:15;;;;;;;;;15.00;10.00;;;;;;;;4993163;28;45473;-69
2022/09/29 03:08:40;;;;;;;;;10.67;9.00;;;;;;;;4993591;28;45805;-69
2022/09/29 03:11:06;;;;;;;;;9.67;8.67;;;;;;;;5004059;28;46753;-69
2022/09/29 03:13:31;;;;;;;;;13.33;9.00;;;;;;;;5009406;28;45510;-69
2022/09/29 03:15:56;;;;;;;;;9.00;8.00;;;;;;;;5009459;28;45411;-69
2022/09/29 03:18:23;;;;;;;;;9.33;9.00;;;;;;;;5009207;28;46020;-69
2022/09/29 03:20:48;;;;;;;;;9.67;8.67;;;;;;;;5000698;28;47167;-69
2022/09/29 03:23:13;;;;;;;;;7.67;7.00;;;;;;;;4992734;28;45447;-69
2022/09/29 03:25:39;;;;;;;;;12.67;10.33;;;;;;;;5002030;28;45698;-69
2022/09/29 03:28:04;;;;;;;;;10.67;9.00;;;;;;;;5033017;28;45616;-69
2022/09/29 03:30:29;;;;;;;;;12.33;5.33;;;;;;;;5047351;28;45645;-69
2022/09/29 03:32:54;;;;;;;;;8.67;8.33;;;;;;;;5044903;28;45341;-69
2022/09/29 03:35:19;;;;;;;;;13.33;11.67;;;;;;;;5046076;28;45442;-69
2022/09/29 03:37:45;;;;;;;;;9.33;8.67;;;;;;;;5050898;28;46258;-69
2022/09/29 03:40:10;;;;;;;;;9.00;8.00;;;;;;;;5045426;28;45442;-69
2022/09/29 03:42:35;;;;;;;;;9.00;9.00;;;;;;;;5034494;28;45380;-69
2022/09/29 03:45:01;;;;;;;;;8.00;8.00;;;;;;;;5050589;28;45364;-69
2022/09/29 03:47:26;;;;;;;;;33.33;30.00;;;;;;;;5051488;28;45746;-69
2022/09/29 03:49:51;;;;;;;;;39.33;32.67;;;;;;;;5051553;28;47379;-69
2022/09/29 03:52:17;;;;;;;;;12.00;9.00;;;;;;;;5051859;28;45559;-69
2022/09/29 03:54:43;;;;;;;;;14.33;11.67;;;;;;;;5055195;28;45415;-69
2022/09/29 03:57:08;;;;;;;;;23.33;21.33;;;;;;;;5044259;28;45482;-69
2022/09/29 03:59:33;;;;;;;;;18.33;17.00;;;;;;;;5040011;28;46765;-69
2022/09/29 04:01:58;;;;;;;;;5.00;5.00;;;;;;;;5037587;28;45772;-69
2022/09/29 04:04:24;;;;;;;;;15.00;9.67;;;;;;;;5048541;28;45792;-69
2022/09/29 04:06:49;;;;;;;;;10.00;10.00;;;;;;;;5047784;28;45720;-69
2022/09/29 04:09:14;;;;;;;;;14.67;11.00;;;;;;;;5042930;28;45638;-69
2022/09/29 04:11:39;;;;;;;;;14.33;11.33;;;;;;;;5040765;28;45467;-69
2022/09/29 04:14:05;;;;;;;;;14.00;12.33;;;;;;;;5052400;28;45478;-68
2022/09/29 04:16:30;;;;;;;;;11.67;10.67;;;;;;;;5054785;28;45379;-69
2022/09/29 04:18:56;;;;;;;;;14.33;12.00;;;;;;;;5054125;28;46427;-69
2022/09/29 04:21:21;;;;;;;;;10.67;8.67;;;;;;;;5054387;28;45486;-69
2022/09/29 04:23:46;;;;;;;;;17.33;11.33;;;;;;;;5053951;28;45790;-69
2022/09/29 04:26:12;;;;;;;;;13.67;12.67;;;;;;;;5054817;28;45481;-69
2022/09/29 04:28:37;;;;;;;;;15.00;13.00;;;;;;;;5054100;28;46064;-69
2022/09/29 04:31:03;;;;;;;;;15.00;13.00;;;;;;;;5047475;28;45614;-69
2022/09/29 04:33:28;;;;;;;;;17.00;12.00;;;;;;;;5053867;28;45454;-69
2022/09/29 04:35:54;;;;;;;;;16.00;12.67;;;;;;;;5054110;28;45558;-69
2022/09/29 04:38:19;;;;;;;;;13.00;11.67;;;;;;;;5053384;28;45448;-69
2022/09/29 04:40:45;;;;;;;;;13.67;11.00;;;;;;;;5054126;28;45632;-69
2022/09/29 04:43:11;;;;;;;;;11.33;11.33;;;;;;;;5053928;28;45677;-69
2022/09/29 04:45:36;;;;;;;;;14.67;10.67;;;;;;;;5040737;28;45545;-69
2022/09/29 04:48:01;;;;;;;;;14.67;9.00;;;;;;;;5036959;28;46654;-69
2022/09/29 04:50:26;;;;;;;;;13.67;12.33;;;;;;;;5042289;28;45482;-69
2022/09/29 04:52:51;;;;;;;;;13.33;12.00;;;;;;;;5049893;28;45443;-69
2022/09/29 04:55:17;;;;;;;;;10.00;10.00;;;;;;;;5053741;28;45387;-69
2022/09/29 04:57:43;;;;;;;;;12.67;9.33;;;;;;;;5053781;28;46734;-69
2022/09/29 05:00:08;;;;;;;;;15.00;11.00;;;;;;;;5052809;28;45418;-69
2022/09/29 05:02:34;;;;;;;;;14.33;11.67;;;;;;;;5053700;28;45545;-69
2022/09/29 05:04:59;;;;;;;;;15.00;14.67;;;;;;;;5051949;28;45741;-69
2022/09/29 05:07:24;;;;;;;;;25.00;23.67;;;;;;;;5037990;28;45436;-69
2022/09/29 05:09:49;;;;;;;;;15.67;13.00;;;;;;;;5037098;28;45427;-69
2022/09/29 05:12:15;;;;;;;;;14.33;12.00;;;;;;;;5036966;28;45315;-69
2022/09/29 05:14:40;;;;;;;;;15.00;11.00;;;;;;;;5037199;28;45494;-69
2022/09/29 05:17:05;;;;;;;;;11.33;10.33;;;;;;;;5036171;28;46762;-69
2022/09/29 05:19:31;;;;;;;;;23.00;20.33;;;;;;;;5036502;28;45837;-69
2022/09/29 05:21:57;;;;;;;;;13.00;11.00;;;;;;;;5036894;28;45467;-69
2022/09/29 05:24:22;;;;;;;;;17.00;17.00;;;;;;;;5045599;28;45424;-69
2022/09/29 05:26:47;;;;;;;;;15.33;12.33;;;;;;;;5046080;28;46184;-69
2022/09/29 05:29:13;;;;;;;;;13.33;12.67;;;;;;;;5036496;28;45336;-69
2022/09/29 05:31:38;;;;;;;;;23.00;19.00;;;;;;;;5036833;28;45512;-69
2022/09/29 05:34:03;;;;;;;;;15.67;13.67;;;;;;;;5043361;28;45536;-69
2022/09/29 05:36:28;;;;;;;;;13.67;13.00;;;;;;;;5052579;28;46159;-69
2022/09/29 05:38:55;;;;;;;;;9.67;9.67;;;;;;;;5052342;28;45617;-69
2022/09/29 05:41:22;;;;;;;;;19.00;17.00;;;;;;;;5049121;28;45548;-69
2022/09/29 05:43:48;;;;;;;;;15.00;14.33;;;;;;;;5053488;28;45544;-69
2022/09/29 05:46:15;;;;;;;;;14.67;13.67;;;;;;;;5052762;28;45456;-69
2022/09/29 05:48:42;;;;;;;;;21.00;18.67;;;;;;;;5052539;28;45405;-69
2022/09/29 05:51:09;;;;;;;;;19.67;14.33;;;;;;;;5053227;28;45679;-69
2022/09/29 05:53:34;;;;;;;;;17.33;14.00;;;;;;;;5052577;28;46316;-69
2022/09/29 05:56:03;;;;;;;;;15.00;12.00;;;;;;;;5052961;28;46610;-69
2022/09/29 05:58:28;;;;;;;;;14.67;13.00;;;;;;;;5052391;28;45534;-67
2022/09/29 06:00:53;;;;;;;;;17.33;14.33;;;;;;;;5043408;28;45430;-67
2022/09/29 06:03:19;;;;;;;;;13.00;11.00;;;;;;;;5040024;28;45400;-67
2022/09/29 06:05:44;;;;;;;;;16.33;13.67;;;;;;;;5037911;28;46784;-67
2022/09/29 06:08:09;;;;;;;;;17.67;17.00;;;;;;;;5038064;28;45334;-67
2022/09/29 06:10:35;;;;;;;;;19.67;15.00;;;;;;;;5038040;28;45283;-67
2022/09/29 06:13:02;;;;;;;;;10.67;10.67;;;;;;;;5038211;28;45358;-67
2022/09/29 06:15:27;;;;;;;;;14.33;14.33;;;;;;;;5037269;28;46719;-67
2022/09/29 06:18:00;;;;;;;;;18.67;14.00;;;;;;;;5037697;28;45308;-67
2022/09/29 06:20:25;;;;;;;;;20.00;17.33;;;;;;;;5037832;28;45414;-67
2022/09/29 06:22:54;;;;;;;;;19.33;16.67;;;;;;;;5038019;28;45466;-67
2022/09/29 06:25:19;;;;;;;;;24.67;20.67;;;;;;;;5037172;28;46748;-67
2022/09/29 06:27:44;;;;;;;;;26.67;22.00;;;;;;;;5037802;28;45430;-67
2022/09/29 06:30:12;;;;;;;;;22.67;21.00;;;;;;;;5037690;28;45323;-67
2022/09/29 06:32:37;;;;;;;;;24.33;23.00;;;;;;;;5037737;28;45405;-67
2022/09/29 06:37:46;;;;;;;;;22.00;17.67;;;;;;;;5037496;28;45336;-67
2022/09/29 06:40:12;;;;;;;;;22.00;16.67;;;;;;;;5037565;28;45371;-67
2022/09/29 06:42:37;;;;;;;;;19.33;16.67;;;;;;;;5049119;28;45285;-67
2022/09/29 06:45:03;;;;;;;;;17.33;16.00;;;;;;;;5054969;28;45430;-66
2022/09/29 06:47:28;;;;;;;;;20.33;18.00;;;;;;;;5048401;28;45397;-67
2022/09/29 06:49:53;;;;;;;;;18.33;16.67;;;;;;;;5036540;28;45420;-67
2022/09/29 06:52:18;;;;;;;;;20.00;17.33;;;;;;;;5046325;28;45459;-67
2022/09/29 06:54:44;;;;;;;;;18.33;16.33;;;;;;;;5057062;28;47249;-67
2022/09/29 06:57:09;;;;;;;;;18.33;16.67;;;;;;;;5057162;28;45300;-67
2022/09/29 06:59:34;;;;;;;;;19.00;16.00;;;;;;;;5051151;28;45901;-67
2022/09/29 07:01:59;;;;;;;;;23.33;18.33;;;;;;;;5053075;28;45616;-67
2022/09/29 07:04:25;;;;;;;;;25.67;22.00;;;;;;;;5051718;28;45737;-66
2022/09/29 07:06:50;;;;;;;;;20.00;17.00;;;;;;;;5056551;28;45422;-66
2022/09/29 07:09:16;;;;;;;;;17.00;15.67;;;;;;;;5055151;28;45255;-66
2022/09/29 07:11:45;;;;;;;;;20.33;19.00;;;;;;;;5052385;28;45419;-67
2022/09/29 07:14:10;;;;;;;;;25.33;24.00;;;;;;;;5050137;28;45574;-67
2022/09/29 07:16:35;;;;;;;;;18.33;13.33;;;;;;;;5053425;28;45469;-67
2022/09/29 07:19:00;;;;;;;;;15.00;15.00;;;;;;;;5049594;28;45680;-67
2022/09/29 07:21:26;;;;;;;;;19.33;14.00;;;;;;;;5054539;28;45434;-66
2022/09/29 07:23:51;;;;;;;;;16.00;16.00;;;;;;;;5055285;28;46922;-66
2022/09/29 07:26:16;;;;;;;;;14.00;14.00;;;;;;;;5056618;28;45705;-66
2022/09/29 07:28:42;;;;;;;;;17.33;17.33;;;;;;;;5055931;28;45440;-66
2022/09/29 07:31:09;;;;;;;;;34.00;28.67;;;;;;;;5057879;28;45483;-67
2022/09/29 07:33:34;;;;;;;;;20.00;18.33;;;;;;;;5057905;28;46275;-67
2022/09/29 07:35:59;;;;;;;;;29.67;26.00;;;;;;;;5059662;28;45426;-67
2022/09/29 07:38:25;;;;;;;;;16.00;14.33;;;;;;;;5059293;28;45612;-67
2022/09/29 07:40:50;;;;;;;;;27.00;23.67;;;;;;;;5059421;28;45610;-66
2022/09/29 07:43:15;;;;;;;;;24.67;20.00;;;;;;;;5057746;28;46257;-67
2022/09/29 07:45:48;;;;;;;;;24.67;21.67;;;;;;;;5042598;28;45360;-67
2022/09/29 07:48:14;;;;;;;;;18.67;16.33;;;;;;;;5060374;28;45343;-67
2022/09/29 07:50:40;;;;;;;;;21.33;20.33;;;;;;;;5060075;28;45312;-67
2022/09/29 07:53:05;;;;;;;;;19.67;18.00;;;;;;;;5059921;28;47324;-67
2022/09/29 07:55:31;;;;;;;;;21.67;18.33;;;;;;;;5060163;28;45301;-67
2022/09/29 07:57:56;;;;;;;;;22.00;19.00;;;;;;;;5060099;28;45320;-67
2022/09/29 08:00:21;;;;;;;;;26.67;23.67;;;;;;;;5060468;28;45355;-67
2022/09/29 08:02:46;;;;;;;;;26.67;23.33;;;;;;;;5055428;28;46766;-67
2022/09/29 08:05:12;;;;;;;;;29.33;25.67;;;;;;;;5049888;28;45427;-68
2022/09/29 08:07:37;;;;;;;;;28.33;27.67;;;;;;;;5059874;28;45424;-67
2022/09/29 08:10:03;;;;;;;;;25.67;25.00;;;;;;;;5060086;28;45605;-67
2022/09/29 08:12:28;;;;;;;;;32.00;26.00;;;;;;;;5059178;28;46909;-67
2022/09/29 08:14:53;;;;;;;;;25.00;21.67;;;;;;;;5059218;28;45301;-67
2022/09/29 08:17:18;;;;;;;;;31.67;29.00;;;;;;;;5059294;28;45244;-67
2022/09/29 08:19:43;;;;;;;;;26.00;21.67;;;;;;;;5058177;28;45363;-67
2022/09/29 08:22:08;;;;;;;;;39.00;33.67;;;;;;;;5054465;28;46284;-67
2022/09/29 08:24:35;;;;;;;;;27.33;26.33;;;;;;;;5057354;28;45396;-67
2022/09/29 08:27:01;;;;;;;;;52.67;44.00;;;;;;;;5057352;28;45495;-67
2022/09/29 08:29:26;;;;;;;;;31.00;27.00;;;;;;;;5059004;28;45319;-67
2022/09/29 08:31:52;;;;;;;;;21.00;19.33;;;;;;;;5055098;28;46134;-67
2022/09/29 08:34:19;;;;;;;;;26.33;22.00;;;;;;;;5059177;28;45354;-68
2022/09/29 08:36:44;;;;;;;;;20.00;20.00;;;;;;;;5059337;28;45482;-67
2022/09/29 08:39:10;;;;;;;;;19.00;17.33;;;;;;;;5059463;28;45399;-67
2022/09/29 08:41:41;;;;;;;;;12.33;12.33;;;;;;;;5057227;28;46823;-67
2022/09/29 08:44:09;;;;;;;;;14.33;13.00;;;;;;;;5057896;28;45418;-68
2022/09/29 08:46:39;;;;;;;;;18.33;14.67;;;;;;;;5057866;28;45379;-68
2022/09/29 08:49:25;;;;;;;;;15.33;14.33;;;;;;;;5057651;28;45517;-68
2022/09/29 08:51:52;;;;;;;;;22.00;19.67;;;;;;;;5058452;28;46282;-66
2022/09/29 08:54:23;;;;;;;;;26.33;21.67;;;;;;;;5057923;28;45533;-67
2022/09/29 08:56:48;;;;;;;;;16.33;12.33;;;;;;;;5051000;28;45311;-67
2022/09/29 08:59:14;;;;;;;;;18.00;14.67;;;;;;;;5058764;28;45377;-68
2022/09/29 09:01:42;;;;;;;;;18.00;14.00;;;;;;;;5058944;28;45407;-66
2022/09/29 09:04:42;;;;;;;;;17.33;16.67;;;;;;;;5058968;28;45472;-67
2022/09/29 09:07:17;;;;;;;;;12.33;10.33;;;;;;;;5029278;28;45402;-66
2022/09/29 09:09:51;;;;;;;;;9.67;7.67;;;;;;;;5029701;28;45512;-66
2022/09/29 09:12:37;;;;;;;;;9.67;9.33;;;;;;;;5036004;28;45910;-66
2022/09/29 09:15:17;;;;;;;;;9.00;8.00;;;;;;;;5027930;28;45210;-67
2022/09/29 09:17:42;;;;;;;;;10.33;7.33;;;;;;;;5035783;28;45672;-67
2022/09/29 09:20:10;;;;;;;;;12.33;12.00;;;;;;;;5035097;28;45606;-67
2022/09/29 09:22:55;;;;;;;;;19.33;18.00;;;;;;;;5035870;28;46286;-67
2022/09/29 09:25:31;;;;;;;;;11.67;11.67;;;;;;;;5035335;28;45290;-67
2022/09/29 09:28:15;;;;;;;;;12.00;10.33;;;;;;;;5036004;28;45506;-67
2022/09/29 09:30:44;;;;;;;;;16.67;11.67;;;;;;;;5033683;28;45465;-67
2022/09/29 09:33:18;;;;;;;;;24.67;24.67;;;;;;;;5035329;28;45512;-67
2022/09/29 09:35:46;;;;;;;;;20.00;17.33;;;;;;;;5033250;28;45495;-67
2022/09/29 09:38:14;;;;;;;;;24.67;24.33;;;;;;;;5035449;28;45453;-67
2022/09/29 09:40:43;;;;;;;;;21.33;17.00;;;;;;;;5034125;28;45413;-67
2022/09/29 09:43:29;;;;;;;;;45.00;35.00;;;;;;;;5056739;28;46345;-67
2022/09/29 09:46:09;;;;;;;;;26.33;19.33;;;;;;;;5056546;28;45921;-67
2022/09/29 09:48:38;;;;;;;;;24.33;22.00;;;;;;;;5057601;28;45459;-67
2022/09/29 09:51:30;;;;;;;;;20.67;18.67;;;;;;;;5056544;28;45265;-67
2022/09/29 09:53:58;;;;;;;;;12.67;11.00;;;;;;;;5049418;28;46430;-67
2022/09/29 09:56:46;;;;;;;;;12.67;9.67;;;;;;;;5056430;28;45357;-67
2022/09/29 09:59:18;;;;;;;;;13.67;13.67;;;;;;;;5057959;28;45329;-67
2022/09/29 10:01:44;;;;;;;;;42.00;36.00;;;;;;;;5057940;28;45409;-67
2022/09/29 10:04:13;;;;;;;;;22.33;18.67;;;;;;;;5057294;28;46124;-67
2022/09/29 10:06:39;;;;;;;;;20.67;17.00;;;;;;;;5056928;28;45693;-66
2022/09/29 10:09:05;;;;;;;;;10.00;9.33;;;;;;;;5057236;28;45498;-69
2022/09/29 10:11:31;;;;;;;;;10.00;8.67;;;;;;;;5056696;28;45493;-66
2022/09/29 10:14:02;;;;;;;;;16.67;15.00;;;;;;;;5056533;28;46140;-66
2022/09/29 10:16:40;;;;;;;;;7.67;6.33;;;;;;;;5057017;28;45435;-66
2022/09/29 10:19:06;;;;;;;;;13.00;13.00;;;;;;;;5056255;28;45434;-66
2022/09/29 10:21:31;;;;;;;;;9.33;6.00;;;;;;;;5055388;28;45379;-66
2022/09/29 10:23:56;;;;;;;;;10.33;9.00;;;;;;;;5056661;28;45355;-66
2022/09/29 10:26:25;;;;;;;;;10.33;7.67;;;;;;;;5056701;28;45371;-65
2022/09/29 10:28:57;;;;;;;;;7.33;7.33;;;;;;;;5056969;28;45373;-66
2022/09/29 10:31:27;;;;;;;;;5.00;5.00;;;;;;;;5057712;28;45458;-68
2022/09/29 10:33:57;;;;;;;;;3.00;3.00;;;;;;;;5058517;28;46032;-67
2022/09/29 10:36:23;;;;;;;;;3.00;3.00;;;;;;;;5069741;27;45593;-67
2022/09/29 10:38:50;;;;;;;;;3.25;3.25;;;;;;;;5057638;28;45340;-68
2022/09/29 10:41:18;;;;;;;;;4.00;3.00;;;;;;;;5056759;28;45415;-67
2022/09/29 10:43:44;;;;;;;;;3.25;3.25;;;;;;;;5057148;28;46426;-64
2022/09/29 10:46:29;;;;;;;;;3.25;2.75;;;;;;;;5057137;28;45427;-65
2022/09/29 10:49:08;;;;;;;;;3.67;3.67;;;;;;;;5056529;28;45682;-65
2022/09/29 10:51:34;;;;;;;;;9.00;4.00;;;;;;;;5056893;28;45498;-65
2022/09/29 10:54:06;;;;;;;;;9.67;8.67;;;;;;;;5056104;28;46190;-66
2022/09/29 10:56:31;;;;;;;;;14.00;12.67;;;;;;;;5049413;28;45455;-65
2022/09/29 10:58:58;;;;;;;;;74.25;54.75;;;;;;;;5051609;28;46679;-65
2022/09/29 11:01:24;;;;;;;;;24.00;20.00;;;;;;;;5036554;28;45410;-65
2022/09/29 11:04:02;;;;;;;;;19.33;16.33;;;;;;;;5052620;28;46411;-65
2022/09/29 11:06:39;;;;;;;;;11.67;9.33;;;;;;;;5050729;28;45470;-66
2022/09/29 11:09:06;;;;;;;;;90.25;75.50;;;;;;;;5056388;28;45311;-65
2022/09/29 11:11:33;;;;;;;;;17.00;14.67;;;;;;;;5055482;28;45422;-65
2022/09/29 11:13:58;;;;;;;;;37.00;32.00;;;;;;;;5055979;28;45500;-66
2022/09/29 11:16:26;;;;;;;;;5.67;5.00;;;;;;;;5054566;28;45469;-65
2022/09/29 11:18:52;;;;;;;;;6.00;6.00;;;;;;;;5055913;28;45477;-65
2022/09/29 11:21:27;;;;;;;;;4.75;3.00;;;;;;;;5055956;28;45408;-66
2022/09/29 11:24:10;;;;;;;;;3.25;1.75;;;;;;;;5053196;28;45984;-66
2022/09/29 11:26:54;;;;;;;;;1.00;0.00;;;;;;;;5052038;28;45558;-66
2022/09/29 11:29:37;;;;;;;;;2.00;0.75;;;;;;;;5056062;28;45348;-67
2022/09/29 11:32:03;;;;;;;;;3.00;3.00;;;;;;;;5053894;28;45484;-66
2022/09/29 11:34:41;;;;;;;;;1.00;1.00;;;;;;;;5053066;28;45603;-66
2022/09/29 11:37:23;;;;;;;;;3.00;3.00;;;;;;;;5050780;27;45440;-66
2022/09/29 11:39:56;;;;;;;;;9.67;9.00;;;;;;;;5053662;28;45564;-66
2022/09/29 11:42:22;;;;;;;;;4.00;3.00;;;;;;;;5053911;28;45574;-67
2022/09/29 11:45:00;;;;;;;;;2.33;2.33;;;;;;;;5055619;28;46706;-65
2022/09/29 11:47:31;;;;;;;;;3.00;3.00;;;;;;;;5046908;28;45519;-66
2022/09/29 11:50:01;;;;;;;;;17.67;17.67;;;;;;;;5056096;28;45324;-67
2022/09/29 11:52:27;;;;;;;;;2.00;2.00;;;;;;;;5051892;28;45615;-66
2022/09/29 11:55:17;;;;;;;;;5.75;4.00;;;;;;;;5054014;28;45837;-66
2022/09/29 11:58:02;;;;;;;;;12.33;8.33;;;;;;;;5053038;28;45862;-66
2022/09/29 12:00:34;;;;;;;;;4.67;4.00;;;;;;;;5054242;28;45190;-66
2022/09/29 12:03:12;;;;;;;;;5.00;5.00;;;;;;;;5051176;28;45609;-65
2022/09/29 12:05:52;;;;;;;;;7.33;6.00;;;;;;;;5053745;28;45503;-65
2022/09/29 12:08:26;;;;;;;;;5.00;5.00;;;;;;;;5052816;28;45585;-65
2022/09/29 12:10:51;;;;;;;;;9.00;7.00;;;;;;;;5051511;28;46518;-66
2022/09/29 12:13:35;;;;;;;;;9.00;7.33;;;;;;;;5054833;28;45288;-66
2022/09/29 12:16:20;;;;;;;;;7.00;7.00;;;;;;;;5056697;28;46447;-66
2022/09/29 12:18:57;;;;;;;;;14.33;12.00;;;;;;;;5051575;28;45581;-65
2022/09/29 12:21:28;;;;;;;;;13.67;13.67;;;;;;;;5053992;28;45491;-65
2022/09/29 12:23:53;;;;;;;;;36.33;31.67;;;;;;;;5051585;28;46584;-66
2022/09/29 12:26:20;;;;;;;;;9.67;9.67;;;;;;;;5057714;28;45343;-66
2022/09/29 12:28:48;;;;;;;;;11.00;9.00;;;;;;;;5057368;28;45514;-67
2022/09/29 12:31:19;;;;;;;;;7.00;6.67;;;;;;;;5056761;28;45554;-66
2022/09/29 12:33:57;;;;;;;;;6.67;4.00;;;;;;;;5057733;28;46828;-66
2022/09/29 12:36:51;;;;;;;;;10.00;10.00;;;;;;;;5056117;28;45795;-66
2022/09/29 12:39:38;;;;;;;;;10.00;6.00;;;;;;;;5056176;28;45494;-66
2022/09/29 12:42:10;;;;;;;;;8.33;8.33;;;;;;;;5056102;28;45605;-66
2022/09/29 12:44:38;;;;;;;;;4.75;2.75;;;;;;;;5064274;28;45481;-66
2022/09/29 12:47:08;;;;;;;;;4.25;4.25;;;;;;;;5056500;28;46159;-66
2022/09/29 12:49:54;;;;;;;;;9.33;7.00;;;;;;;;5056865;28;45216;-66
2022/09/29 12:52:21;;;;;;;;;8.00;5.33;;;;;;;;5044781;28;45364;-66
2022/09/29 12:54:52;;;;;;;;;0.25;0.00;;;;;;;;5054533;28;45372;-66
2022/09/29 12:57:21;;;;;;;;;2.00;2.00;;;;;;;;5056430;28;45609;-66
2022/09/29 13:00:01;;;;;;;;;2.50;2.00;;;;;;;;5052780;28;45465;-66
2022/09/29 13:02:28;;;;;;;;;2.00;2.00;;;;;;;;5056312;28;45510;-67
2022/09/29 13:04:59;;;;;;;;;3.00;3.00;;;;;;;;5052996;28;45230;-66
2022/09/29 13:07:39;;;;;;;;;3.00;1.50;;;;;;;;5048408;28;47414;-66
2022/09/29 13:10:05;;;;;;;;;3.00;3.00;;;;;;;;5054044;28;45425;-66
2022/09/29 13:12:30;;;;;;;;;6.25;4.50;;;;;;;;5054528;28;45595;-66
2022/09/29 13:15:06;;;;;;;;;6.25;3.25;;;;;;;;5056529;28;45482;-65
2022/09/29 13:17:50;;;;;;;;;3.00;3.00;;;;;;;;5061487;28;45715;-65
2022/09/29 13:20:22;;;;;;;;;2.33;2.33;;;;;;;;5054925;28;45528;-65
2022/09/29 13:23:06;;;;;;;;;4.00;4.00;;;;;;;;5053564;28;45546;-65
2022/09/29 13:25:53;;;;;;;;;4.00;4.00;;;;;;;;5054256;28;45505;-66
2022/09/29 13:28:32;;;;;;;;;3.33;3.33;;;;;;;;5048135;28;45344;-66
2022/09/29 13:31:01;;;;;;;;;1.00;1.00;;;;;;;;5055013;28;45458;-66
2022/09/29 13:33:27;;;;;;;;;4.50;2.00;;;;;;;;5056012;28;45520;-66
2022/09/29 13:35:53;;;;;;;;;1.00;1.00;;;;;;;;5058477;27;46579;-66
2022/09/29 13:38:21;;;;;;;;;1.00;1.00;;;;;;;;5055689;28;45953;-66
2022/09/29 13:41:05;;;;;;;;;2.00;2.00;;;;;;;;5054899;28;45494;-67
2022/09/29 13:43:39;;;;;;;;;1.50;1.50;;;;;;;;5054234;28;46431;-67
2022/09/29 13:46:23;;;;;;;;;14.33;14.33;;;;;;;;5053037;28;45500;-65
2022/09/29 13:48:53;;;;;;;;;2.00;1.00;;;;;;;;5052552;28;46068;-66
2022/09/29 13:51:41;;;;;;;;;2.00;0.00;;;;;;;;5056148;28;45496;-66
2022/09/29 13:54:13;;;;;;;;;1.75;1.00;;;;;;;;5027964;28;45631;-66
2022/09/29 13:56:38;;;;;;;;;1.50;1.50;;;;;;;;5014100;28;45606;-66
2022/09/29 13:59:13;;;;;;;;;3.00;3.00;;;;;;;;5011410;28;46391;-66
2022/09/29 14:01:39;;;;;;;;;2.00;2.00;;;;;;;;5012467;28;45561;-66
2022/09/29 14:04:23;;;;;;;;;4.75;1.00;;;;;;;;5010755;28;45444;-66
2022/09/29 14:06:49;;;;;;;;;4.00;4.00;;;;;;;;5018885;28;46850;-66
2022/09/29 14:09:21;;;;;;;;;0.75;0.75;;;;;;;;5012576;28;46212;-66
2022/09/29 14:11:56;;;;;;;;;1.75;1.75;;;;;;;;5009423;28;45425;-66
2022/09/29 14:14:37;;;;;;;;;5.50;5.50;;;;;;;;5018114;28;45524;-66
2022/09/29 14:17:10;;;;;;;;;5.75;1.50;;;;;;;;5019717;28;45505;-66
2022/09/29 14:19:41;;;;;;;;;3.50;3.50;;;;;;;;5022139;28;46901;-66
2022/09/29 14:22:42;;;;;;;;;3.00;2.00;;;;;;;;5014240;28;45444;-66
2022/09/29 14:25:09;;;;;;;;;1.75;1.75;;;;;;;;4906409;28;45628;-66
2022/09/29 14:27:38;;;;;;;;;3.25;2.50;;;;;;;;4925034;28;46956;-66
2022/09/29 14:30:10;;;;;;;;;1.00;1.00;;;;;;;;4923163;28;45510;-66
2022/09/29 14:32:45;;;;;;;;;2.00;2.00;;;;;;;;4972456;28;45983;-66
2022/09/29 14:35:21;;;;;;;;;1.25;1.25;;;;;;;;4972121;28;45526;-66
2022/09/29 14:37:50;;;;;;;;;0.00;0.00;;;;;;;;4973680;28;45591;-67
2022/09/29 14:40:28;;;;;;;;;2.00;1.00;;;;;;;;4969675;28;45485;-68
2022/09/29 14:43:12;;;;;;;;;0.00;0.00;;;;;;;;4973257;28;45532;-68
2022/09/29 14:51:59;;;;;;;;;1.75;1.75;;;;;;;;4929963;28;45989;-69